Terminal Aerodrome Forecast
Issued by NWS

Home | Current Version | Previous Version | Text Only | Print | Product List | Glossary Off
Versions: 1 2 3 4 5 6 7 8 9 10 11 12 13 14 15 16 17 18 19

000
FTUS41 KCLE 290539
TAFFDY
TAF
KFDY 290539Z 2906/3006 03005KT P6SM OVC018
      TEMPO 2906/2910 OVC009
     FM291000 01005KT P6SM OVC009
     FM291600 01004KT P6SM OVC015
     FM292100 03008KT P6SM OVC025
     FM300200 06005KT P6SM OVC035=

USA.gov is the U.S. government's official web portal to all federal, state and local government web resources and services.